createdAt,value
2023-04-15T00:01:26.461Z,11.60
2023-04-15T00:03:59.597Z,11.00
2023-04-15T00:06:31.234Z,11.00
2023-04-15T00:09:02.560Z,11.60
2023-04-15T00:11:33.943Z,12.10
2023-04-15T00:14:07.572Z,13.70
2023-04-15T00:16:41.644Z,13.50
2023-04-15T00:19:14.959Z,14.50
2023-04-15T00:21:46.145Z,15.40
2023-04-15T00:24:17.218Z,14.50
2023-04-15T00:26:48.088Z,14.90
2023-04-15T00:29:21.903Z,14.50
2023-04-15T00:31:52.738Z,14.40
2023-04-15T00:34:24.206Z,13.70
2023-04-15T00:36:55.380Z,13.70
2023-04-15T00:39:26.349Z,13.90
2023-04-15T00:41:57.685Z,13.70
2023-04-15T00:44:31.319Z,15.10
2023-04-15T00:47:05.110Z,14.50
2023-04-15T00:49:36.266Z,14.90
2023-04-15T00:52:07.491Z,14.70
2023-04-15T00:54:38.555Z,15.30
2023-04-15T00:57:09.899Z,15.80
2023-04-15T00:59:43.395Z,15.80
2023-04-15T01:02:14.591Z,15.80
2023-04-15T01:04:45.635Z,15.80
2023-04-15T01:07:17.585Z,15.60
2023-04-15T01:09:48.863Z,16.50
2023-04-15T01:12:20.716Z,15.10
2023-04-15T01:14:56.624Z,15.20
2023-04-15T01:17:28.406Z,16.70
2023-04-15T01:19:59.749Z,17.20
2023-04-15T01:22:31.661Z,17.50
2023-04-15T01:25:08.608Z,16.70
2023-04-15T01:27:44.157Z,17.80
2023-04-15T01:30:15.739Z,18.00
2023-04-15T01:32:46.804Z,17.80
2023-04-15T01:35:18.363Z,16.80
2023-04-15T01:37:50.086Z,17.00
2023-04-15T01:40:21.553Z,17.10
2023-04-15T01:42:55.051Z,15.90
2023-04-15T01:45:26.781Z,16.10
2023-04-15T01:47:57.958Z,16.60
2023-04-15T01:50:28.926Z,16.90
2023-04-15T01:52:59.853Z,16.30
2023-04-15T01:55:31.055Z,16.80
2023-04-15T01:58:04.699Z,17.20
2023-04-15T02:00:37.982Z,16.40
2023-04-15T02:03:10.004Z,16.50
2023-04-15T02:05:41.132Z,17.00
2023-04-15T02:08:12.548Z,18.70
2023-04-15T02:10:43.408Z,17.70
2023-04-15T02:13:17.126Z,17.40
2023-04-15T02:15:51.053Z,20.00
2023-04-15T02:18:22.261Z,19.10
2023-04-15T02:20:56.802Z,18.10
2023-04-15T02:23:27.770Z,18.60
2023-04-15T02:26:00.001Z,18.60
2023-04-15T02:28:33.524Z,17.90
2023-04-15T02:31:08.305Z,19.30
2023-04-15T02:33:39.406Z,19.80
2023-04-15T02:36:12.689Z,19.50
2023-04-15T02:38:44.045Z,19.50
2023-04-15T02:41:15.151Z,18.90
2023-04-15T02:43:48.685Z,19.20
2023-04-15T02:46:19.897Z,19.60
2023-04-15T02:48:53.957Z,19.60
2023-04-15T02:51:26.101Z,20.10
2023-04-15T02:53:57.037Z,19.40
2023-04-15T02:56:28.294Z,19.10
2023-04-15T02:59:02.081Z,19.50
2023-04-15T03:01:33.319Z,19.40
2023-04-15T03:04:04.368Z,18.80
2023-04-15T03:06:35.536Z,19.20
2023-04-15T03:09:06.534Z,19.00
2023-04-15T03:11:40.840Z,19.10
2023-04-15T03:14:14.411Z,19.40
2023-04-15T03:16:45.522Z,20.40
2023-04-15T03:19:16.870Z,20.80
2023-04-15T03:21:47.875Z,20.60
2023-04-15T03:24:19.029Z,21.20
2023-04-15T03:26:52.026Z,22.20
2023-04-15T03:29:26.015Z,21.30
2023-04-15T03:31:57.086Z,22.40
2023-04-15T03:34:27.999Z,22.00
2023-04-15T03:36:59.177Z,21.70
2023-04-15T03:39:30.454Z,22.20
2023-04-15T03:42:03.583Z,23.20
2023-04-15T03:44:37.289Z,22.20
2023-04-15T03:47:08.245Z,24.30
2023-04-15T03:49:39.695Z,22.90
2023-04-15T03:52:10.722Z,23.30
2023-04-15T03:54:42.196Z,23.80
2023-04-15T03:57:13.253Z,23.50
2023-04-15T03:59:46.750Z,24.30
2023-04-15T04:02:17.679Z,23.40
2023-04-15T04:04:51.218Z,22.50
2023-04-15T04:07:22.243Z,24.10
2023-04-15T04:09:54.677Z,23.70
2023-04-15T04:12:25.725Z,23.60
2023-04-15T04:14:59.253Z,23.40
2023-04-15T04:17:30.153Z,23.60
2023-04-15T04:20:01.337Z,22.50
2023-04-15T04:22:32.171Z,23.60
2023-04-15T04:25:05.712Z,23.60
2023-04-15T04:27:36.576Z,23.40
2023-04-15T04:30:11.568Z,23.70
2023-04-15T04:32:42.585Z,23.90
2023-04-15T04:35:13.575Z,23.20
2023-04-15T04:37:44.683Z,23.50
2023-04-15T04:40:16.889Z,24.80
2023-04-15T04:42:48.191Z,24.20
2023-04-15T04:45:21.818Z,24.10
2023-04-15T04:47:52.733Z,24.90
2023-04-15T04:50:25.915Z,24.80
2023-04-15T04:52:59.986Z,24.40
2023-04-15T04:55:32.152Z,25.20
2023-04-15T04:58:03.085Z,26.20
2023-04-15T05:00:38.044Z,24.90
2023-04-15T05:03:09.322Z,25.90
2023-04-15T05:05:41.257Z,25.60
2023-04-15T05:08:18.532Z,25.40
2023-04-15T05:10:49.692Z,25.10
2023-04-15T05:13:21.873Z,26.20
2023-04-15T05:15:55.773Z,25.50
2023-04-15T05:18:26.789Z,24.80
2023-04-15T05:20:57.759Z,25.60
2023-04-15T05:23:29.025Z,25.60
2023-04-15T05:26:02.857Z,26.10
2023-04-15T05:28:33.755Z,24.90
2023-04-15T05:31:07.448Z,25.50
2023-04-15T05:33:38.496Z,25.60
2023-04-15T05:36:10.181Z,26.30
2023-04-15T05:38:41.146Z,26.40
2023-04-15T05:41:12.423Z,25.50
2023-04-15T05:43:43.401Z,26.00
2023-04-15T05:46:17.162Z,26.10
2023-04-15T05:48:50.141Z,25.60
2023-04-15T05:51:21.506Z,27.10
2023-04-15T05:53:54.923Z,25.30
2023-04-15T05:56:26.997Z,26.60
2023-04-15T05:58:57.965Z,26.20
2023-04-15T06:01:31.553Z,27.20
2023-04-15T06:04:03.140Z,25.80
2023-04-15T06:06:34.810Z,25.60
2023-04-15T06:09:05.710Z,25.80
2023-04-15T06:11:36.859Z,25.40
2023-04-15T06:14:07.758Z,25.80
2023-04-15T06:16:41.531Z,25.60
2023-04-15T06:19:12.615Z,24.30
2023-04-15T06:21:43.840Z,25.20
2023-04-15T06:24:15.038Z,25.10
2023-04-15T06:26:48.842Z,24.60
2023-04-15T06:29:20.016Z,24.60
2023-04-15T06:31:54.054Z,25.20
2023-04-15T06:34:25.749Z,26.60
2023-04-15T06:36:57.636Z,26.70
2023-04-15T06:39:28.603Z,28.20
2023-04-15T06:41:59.577Z,28.00
2023-04-15T06:44:33.385Z,29.00
2023-04-15T06:47:10.028Z,29.00
2023-04-15T06:49:40.901Z,27.90
2023-04-15T06:52:13.188Z,28.30
2023-04-15T06:54:44.174Z,28.20
2023-04-15T06:57:15.145Z,27.80
2023-04-15T06:59:46.411Z,27.60
2023-04-15T07:02:20.143Z,27.90
2023-04-15T07:04:51.247Z,27.80
2023-04-15T07:07:22.121Z,27.20
2023-04-15T07:09:53.885Z,26.10
2023-04-15T07:12:24.850Z,27.50
2023-04-15T07:14:55.962Z,28.90
2023-04-15T07:17:29.553Z,28.80
2023-04-15T07:20:00.525Z,27.80
2023-04-15T07:22:31.549Z,27.60
2023-04-15T07:25:02.469Z,28.00
2023-04-15T07:27:33.630Z,26.70
2023-04-15T07:30:07.320Z,26.40
2023-04-15T07:32:42.919Z,27.30
2023-04-15T07:35:14.784Z,27.00
2023-04-15T07:37:46.218Z,26.20
2023-04-15T07:40:17.426Z,24.90
2023-04-15T07:42:49.633Z,25.10
2023-04-15T07:45:23.056Z,23.40
2023-04-15T07:47:56.958Z,23.70
2023-04-15T07:50:28.115Z,22.50
2023-04-15T07:52:58.970Z,22.10
2023-04-15T07:55:30.769Z,22.70
2023-04-15T07:58:01.704Z,20.10
2023-04-15T08:00:32.738Z,20.30
2023-04-15T08:03:09.541Z,18.80
2023-04-15T08:05:41.163Z,17.90
2023-04-15T08:08:12.156Z,17.90
2023-04-15T08:10:43.126Z,17.50
2023-04-15T08:13:14.055Z,15.90
2023-04-15T08:15:45.072Z,17.00
2023-04-15T08:18:18.577Z,16.90
2023-04-15T08:20:52.423Z,14.70
2023-04-15T08:23:23.846Z,14.70
2023-04-15T08:25:55.186Z,15.80
2023-04-15T08:28:26.116Z,14.50
2023-04-15T08:30:57.006Z,14.50
2023-04-15T08:33:30.526Z,14.20
2023-04-15T08:36:03.938Z,12.70
2023-04-15T08:38:34.803Z,13.30
2023-04-15T08:41:11.043Z,12.40
2023-04-15T08:43:55.007Z,12.90
2023-04-15T08:46:26.919Z,12.40
2023-04-15T08:49:01.719Z,12.80
2023-04-15T08:51:33.193Z,12.30
2023-04-15T08:54:04.899Z,13.40
2023-04-15T08:56:37.271Z,13.50
2023-04-15T08:59:08.692Z,13.90
2023-04-15T09:01:41.204Z,13.70
2023-04-15T09:04:14.959Z,14.00
2023-04-15T09:06:45.891Z,14.10
2023-04-15T09:09:17.116Z,13.70
2023-04-15T09:11:50.082Z,14.40
2023-04-15T09:14:21.166Z,14.70
2023-04-15T09:17:05.261Z,14.80
2023-04-15T09:19:38.756Z,14.70
2023-04-15T09:22:12.515Z,15.70
2023-04-15T09:24:46.916Z,15.70
2023-04-15T09:27:19.829Z,15.60
2023-04-15T09:29:54.171Z,15.40
2023-04-15T09:32:25.194Z,16.00
2023-04-15T09:34:58.661Z,16.20
2023-04-15T09:37:38.871Z,15.40
2023-04-15T09:40:16.575Z,14.90
2023-04-15T09:43:00.589Z,14.80
2023-04-15T09:45:32.173Z,16.10
2023-04-15T09:48:17.930Z,15.60
2023-04-15T09:50:53.773Z,15.60
2023-04-15T09:53:26.135Z,16.00
2023-04-15T09:55:58.694Z,16.50
2023-04-15T09:58:45.348Z,15.80
2023-04-15T10:01:21.627Z,15.00
2023-04-15T10:03:57.381Z,16.10
2023-04-15T10:06:32.669Z,16.10
2023-04-15T10:09:04.422Z,15.00
2023-04-15T10:11:38.622Z,15.70
2023-04-15T10:14:11.357Z,16.50
2023-04-15T10:16:49.188Z,16.00
2023-04-15T10:19:24.630Z,16.60
2023-04-15T10:21:59.098Z,16.80
2023-04-15T10:24:31.241Z,17.10
2023-04-15T10:27:07.126Z,16.60
2023-04-15T10:29:39.464Z,16.40
2023-04-15T10:32:10.861Z,16.70
2023-04-15T10:34:42.330Z,16.40
2023-04-15T10:37:16.121Z,16.90
2023-04-15T10:39:47.249Z,16.30
2023-04-15T10:42:19.781Z,16.90
2023-04-15T10:44:53.766Z,16.90
2023-04-15T10:47:25.696Z,17.50
2023-04-15T10:50:01.760Z,16.30
2023-04-15T10:52:45.624Z,16.60
2023-04-15T10:55:18.094Z,17.00
2023-04-15T10:57:49.421Z,17.90
2023-04-15T11:00:21.754Z,18.70
2023-04-15T11:02:57.535Z,18.50
2023-04-15T11:05:54.145Z,18.90
2023-04-15T11:08:57.376Z,18.20
2023-04-15T11:11:58.111Z,18.50
2023-04-15T11:14:29.404Z,18.20
2023-04-15T11:17:01.136Z,18.70
2023-04-15T11:19:39.758Z,18.40
2023-04-15T11:22:11.738Z,18.20
2023-04-15T11:24:53.237Z,18.20
2023-04-15T11:27:25.354Z,18.30
2023-04-15T11:29:56.281Z,17.90
2023-04-15T11:32:27.249Z,18.80
2023-04-15T11:34:58.490Z,19.10
2023-04-15T11:37:33.717Z,19.80
2023-04-15T11:40:10.798Z,19.80
2023-04-15T11:42:49.521Z,18.60
2023-04-15T11:45:21.374Z,18.60
2023-04-15T11:47:52.284Z,18.80
2023-04-15T11:50:25.132Z,19.10
2023-04-15T11:52:57.671Z,20.20
2023-04-15T11:55:32.244Z,19.80
2023-04-15T11:58:11.836Z,20.40
2023-04-15T12:00:43.654Z,21.20
2023-04-15T12:03:22.941Z,20.80
2023-04-15T12:06:07.840Z,21.60
2023-04-15T12:08:55.741Z,21.00
2023-04-15T12:11:38.328Z,21.50
2023-04-15T12:14:12.783Z,19.80
2023-04-15T12:16:48.879Z,20.00
2023-04-15T12:19:26.026Z,20.00
2023-04-15T12:22:02.219Z,20.90
2023-04-15T12:24:37.278Z,20.00
2023-04-15T12:27:12.478Z,20.10
2023-04-15T12:29:44.742Z,20.20
2023-04-15T12:32:16.905Z,21.40
2023-04-15T12:34:52.817Z,20.80
2023-04-15T12:37:24.112Z,21.10
2023-04-15T12:39:55.139Z,20.60
2023-04-15T12:42:28.919Z,20.70
2023-04-15T12:45:01.022Z,20.20
2023-04-15T12:47:32.099Z,20.30
2023-04-15T12:50:03.655Z,20.40
2023-04-15T12:52:34.573Z,21.00
2023-04-15T12:55:05.561Z,20.80
2023-04-15T12:57:39.980Z,21.20
2023-04-15T13:00:13.739Z,21.20
2023-04-15T13:02:47.359Z,22.10
2023-04-15T13:05:18.517Z,22.40
2023-04-15T13:07:54.340Z,22.00
2023-04-15T13:10:25.598Z,21.60
2023-04-15T13:13:02.373Z,21.80
2023-04-15T13:15:33.442Z,22.20
2023-04-15T13:18:04.798Z,20.70
2023-04-15T13:20:35.747Z,21.40
2023-04-15T13:23:06.976Z,21.90
2023-04-15T13:25:37.982Z,21.70
2023-04-15T13:28:11.961Z,21.30
2023-04-15T13:30:44.351Z,20.80
2023-04-15T13:33:15.477Z,20.60
2023-04-15T13:35:46.533Z,20.80
2023-04-15T13:38:17.481Z,21.90
2023-04-15T13:40:48.652Z,21.70
2023-04-15T13:43:22.340Z,21.50
2023-04-15T13:45:56.570Z,21.50
2023-04-15T13:48:27.529Z,21.60
2023-04-15T13:50:58.604Z,22.30
2023-04-15T13:53:38.428Z,20.20
2023-04-15T13:56:11.211Z,21.40
2023-04-15T13:58:44.696Z,21.60
2023-04-15T14:01:15.867Z,22.10
2023-04-15T14:03:46.970Z,22.70
2023-04-15T14:06:17.989Z,22.20
2023-04-15T14:08:48.912Z,23.50
2023-04-15T14:11:19.903Z,22.70
2023-04-15T14:13:53.507Z,22.50
2023-04-15T14:16:24.559Z,22.10
2023-04-15T14:18:55.857Z,21.90
2023-04-15T14:21:27.995Z,22.00
2023-04-15T14:23:58.935Z,21.90
2023-04-15T14:26:30.092Z,22.70
2023-04-15T14:29:03.907Z,22.30
2023-04-15T14:31:37.953Z,22.40
2023-04-15T14:34:13.249Z,23.50
2023-04-15T14:36:44.675Z,23.50
2023-04-15T14:39:17.137Z,24.00
2023-04-15T14:41:48.201Z,24.90
2023-04-15T14:44:21.992Z,25.90
2023-04-15T14:46:54.997Z,25.10
2023-04-15T14:49:26.209Z,25.90
2023-04-15T14:51:57.383Z,25.90
2023-04-15T14:54:28.409Z,26.30
2023-04-15T14:56:59.366Z,26.90
2023-04-15T14:59:32.965Z,26.80
2023-04-15T15:02:04.112Z,27.10
2023-04-15T15:04:36.184Z,27.80
2023-04-15T15:07:07.206Z,28.90
2023-04-15T15:09:38.190Z,29.30
2023-04-15T15:12:09.446Z,29.60
2023-04-15T15:14:42.910Z,32.00
2023-04-15T15:17:22.701Z,32.40
2023-04-15T15:19:53.903Z,33.90
2023-04-15T15:22:26.082Z,37.60
2023-04-15T15:24:59.344Z,38.30
2023-04-15T15:27:30.406Z,42.40
2023-04-15T15:30:04.034Z,47.60
2023-04-15T15:32:35.178Z,49.60
2023-04-15T15:35:06.553Z,56.60
2023-04-15T15:37:41.110Z,57.30
2023-04-15T15:40:12.890Z,58.20
2023-04-15T15:42:44.183Z,69.10
2023-04-15T15:45:19.447Z,71.60
2023-04-15T15:47:51.082Z,72.60
2023-04-15T15:50:23.295Z,99.90
2023-04-15T15:52:55.245Z,99.90
2023-04-15T15:55:27.332Z,99.90
2023-04-15T15:57:58.396Z,99.90
2023-04-15T16:00:32.018Z,99.90
2023-04-15T16:03:07.289Z,99.90
2023-04-15T16:05:41.814Z,99.90
2023-04-15T16:08:13.111Z,99.90
2023-04-15T16:10:45.809Z,99.90
2023-04-15T16:13:16.743Z,99.90
2023-04-15T16:15:50.378Z,99.90
2023-04-15T16:18:21.471Z,99.90
2023-04-15T16:20:52.531Z,99.90
2023-04-15T16:23:24.075Z,99.90
2023-04-15T16:25:55.135Z,99.90
2023-04-15T16:28:27.175Z,99.90
2023-04-15T16:31:01.069Z,99.90
2023-04-15T16:33:32.383Z,99.90
2023-04-15T16:36:03.729Z,99.90
2023-04-15T16:38:34.994Z,99.90
2023-04-15T16:41:06.034Z,99.90
2023-04-15T16:43:37.054Z,99.90
2023-04-15T16:46:11.070Z,99.90
2023-04-15T16:48:42.194Z,99.90
2023-04-15T16:51:13.204Z,99.90
2023-04-15T16:53:47.477Z,99.90
2023-04-15T16:56:21.862Z,99.90
2023-04-15T16:58:53.352Z,99.90
2023-04-15T17:01:27.114Z,99.90
2023-04-15T17:03:58.329Z,99.90
2023-04-15T17:06:29.611Z,99.90
2023-04-15T17:09:00.745Z,99.90
2023-04-15T17:11:32.184Z,99.90
2023-04-15T17:14:03.214Z,99.90
2023-04-15T17:16:36.705Z,99.90
2023-04-15T17:19:07.819Z,99.90
2023-04-15T17:21:38.880Z,99.90
2023-04-15T17:24:10.300Z,99.90
2023-04-15T17:26:44.313Z,99.90
2023-04-15T17:29:15.224Z,99.90
2023-04-15T17:31:49.012Z,99.90
2023-04-15T17:34:22.442Z,99.90
2023-04-15T17:36:55.111Z,99.90
2023-04-15T17:39:26.558Z,99.90
2023-04-15T17:42:00.062Z,99.90
2023-04-15T17:44:31.181Z,99.90
2023-04-15T17:47:06.403Z,99.90
2023-04-15T17:49:39.234Z,99.90
2023-04-15T17:52:10.163Z,99.90
2023-04-15T17:54:42.214Z,99.90
2023-04-15T17:57:13.341Z,99.90
2023-04-15T17:59:47.832Z,99.90
2023-04-15T18:02:21.635Z,99.90
2023-04-15T18:05:01.721Z,99.90
2023-04-15T18:07:32.789Z,99.90
2023-04-15T18:10:03.742Z,99.90
2023-04-15T18:12:37.937Z,99.90
2023-04-15T18:15:10.644Z,99.90
2023-04-15T18:17:44.216Z,99.90
2023-04-15T18:20:15.764Z,99.90
2023-04-15T18:22:46.835Z,99.90
2023-04-15T18:25:17.944Z,99.90
2023-04-15T18:27:48.966Z,99.90
2023-04-15T18:30:19.977Z,99.90
2023-04-15T18:32:53.532Z,99.90
2023-04-15T18:35:24.537Z,99.90
2023-04-15T18:37:56.302Z,99.90
2023-04-15T18:40:27.382Z,99.90
2023-04-15T18:42:58.930Z,99.90
2023-04-15T18:45:29.875Z,99.90
2023-04-15T18:48:07.199Z,99.90
2023-04-15T18:50:38.223Z,99.90
2023-04-15T18:53:09.373Z,99.90
2023-04-15T18:55:41.656Z,99.90
2023-04-15T18:58:12.653Z,99.90
2023-04-15T19:00:43.980Z,99.90
2023-04-15T19:03:17.653Z,99.90
2023-04-15T19:05:51.664Z,99.90
2023-04-15T19:08:24.701Z,99.90
2023-04-15T19:10:56.422Z,99.90
2023-04-15T19:13:27.477Z,99.90
2023-04-15T19:15:58.435Z,99.90
2023-04-15T19:18:32.257Z,99.90
2023-04-15T19:21:04.127Z,99.90
2023-04-15T19:23:35.189Z,99.90
2023-04-15T19:26:08.319Z,99.90
2023-04-15T19:28:39.601Z,99.90
2023-04-15T19:31:13.289Z,99.90
2023-04-15T19:33:46.898Z,99.90
2023-04-15T19:36:18.259Z,99.90
2023-04-15T19:38:52.623Z,99.90
2023-04-15T19:41:23.691Z,99.90
2023-04-15T19:43:55.076Z,99.90
2023-04-15T19:46:26.362Z,99.90
2023-04-15T19:49:00.630Z,99.90
2023-04-15T19:51:38.579Z,99.90
2023-04-15T19:54:09.583Z,99.90
2023-04-15T19:56:42.488Z,99.90
2023-04-15T19:59:13.403Z,99.90
2023-04-15T20:01:44.979Z,99.90
2023-04-15T20:04:18.651Z,99.90
2023-04-15T20:06:49.610Z,99.90
2023-04-15T20:09:20.828Z,99.90
2023-04-15T20:12:09.931Z,99.90
2023-04-15T20:14:45.690Z,99.90
2023-04-15T20:17:19.720Z,99.90
2023-04-15T20:19:55.736Z,99.90
2023-04-15T20:22:26.643Z,99.90
2023-04-15T20:24:57.747Z,99.90
2023-04-15T20:27:28.662Z,99.90
2023-04-15T20:29:59.564Z,99.90
2023-04-15T20:32:32.807Z,99.90
2023-04-15T20:35:07.442Z,99.90
2023-04-15T20:37:40.702Z,99.90
2023-04-15T20:40:13.095Z,99.90
2023-04-15T20:42:46.571Z,99.90
2023-04-15T20:45:17.684Z,99.90
2023-04-15T20:47:51.794Z,99.90
2023-04-15T20:50:25.258Z,99.90
2023-04-15T20:52:56.335Z,99.90
2023-04-15T20:55:28.954Z,99.90
2023-04-15T20:58:02.417Z,99.90
2023-04-15T21:00:33.465Z,99.90
2023-04-15T21:03:04.738Z,99.90
2023-04-15T21:05:41.579Z,99.90
2023-04-15T21:08:13.002Z,99.90
2023-04-15T21:10:44.256Z,99.90
2023-04-15T21:13:17.811Z,99.90
2023-04-15T21:15:54.488Z,99.90
2023-04-15T21:18:25.862Z,99.90
2023-04-15T21:21:03.108Z,99.90
2023-04-15T21:23:37.123Z,99.90
2023-04-15T21:26:08.100Z,99.90
2023-04-15T21:28:39.433Z,99.90
2023-04-15T21:31:10.301Z,99.90
2023-04-15T21:33:41.242Z,99.90
2023-04-15T21:36:14.829Z,99.90
2023-04-15T21:38:45.726Z,99.90
2023-04-15T21:41:16.552Z,99.90
2023-04-15T21:43:47.556Z,99.90
2023-04-15T21:46:25.338Z,99.90
2023-04-15T21:48:58.336Z,99.90
2023-04-15T21:51:32.747Z,99.90
2023-04-15T21:54:03.693Z,99.90
2023-04-15T21:56:38.095Z,99.90
2023-04-15T21:59:09.254Z,99.90
2023-04-15T22:01:43.248Z,99.90
2023-04-15T22:04:14.392Z,99.90
2023-04-15T22:06:48.324Z,99.90
2023-04-15T22:09:19.612Z,99.90
2023-04-15T22:11:50.692Z,99.90
2023-04-15T22:14:21.599Z,99.90
2023-04-15T22:16:52.716Z,99.90
2023-04-15T22:19:23.653Z,99.90
2023-04-15T22:21:57.181Z,99.90
2023-04-15T22:24:39.412Z,99.90
2023-04-15T22:27:12.287Z,99.90
2023-04-15T22:29:43.649Z,99.90
2023-04-15T22:32:14.635Z,99.90
2023-04-15T22:34:45.624Z,99.90
2023-04-15T22:37:19.123Z,99.90
2023-04-15T22:39:50.701Z,99.90
2023-04-15T22:42:21.746Z,99.90
2023-04-15T22:44:52.764Z,99.90
2023-04-15T22:47:23.759Z,99.90
2023-04-15T22:49:54.670Z,99.90
2023-04-15T22:52:30.963Z,99.90
2023-04-15T22:55:02.575Z,99.90
2023-04-15T22:57:33.625Z,99.90
2023-04-15T23:00:04.514Z,99.90
2023-04-15T23:02:35.643Z,99.90
2023-04-15T23:05:12.081Z,99.90
2023-04-15T23:07:47.039Z,99.90
2023-04-15T23:10:18.109Z,99.90
2023-04-15T23:12:49.192Z,99.90
2023-04-15T23:15:20.313Z,99.90
2023-04-15T23:17:51.382Z,99.90
2023-04-15T23:20:22.348Z,99.90
2023-04-15T23:22:56.059Z,99.90
2023-04-15T23:25:27.370Z,99.90
2023-04-15T23:27:58.627Z,99.90
2023-04-15T23:30:29.735Z,99.90
2023-04-15T23:33:06.247Z,99.90
2023-04-15T23:35:37.913Z,99.90
2023-04-15T23:38:11.511Z,99.90
2023-04-15T23:40:42.682Z,99.90
2023-04-15T23:43:13.683Z,99.90
2023-04-15T23:45:44.832Z,99.90
2023-04-15T23:48:16.092Z,99.90
2023-04-15T23:50:47.064Z,99.90
2023-04-15T23:53:27.455Z,99.90
2023-04-15T23:55:58.708Z,99.90
2023-04-15T23:58:30.262Z,99.90
